Time;durP1;ratioP1;P1;durP2;ratioP2;P2;SDS_P1;SDS_P2;PMS_P1;PMS_P2;Temp;Humidity;BMP_temperature;BMP_pressure;BME280_temperature;BME280_humidity;BME280_pressure;Samples;Min_cycle;Max_cycle;Signal;HPM_P1;HPM_P2
2021/07/01 00:02:18;;;;;;;5.50;2.90;;;;;;;21.44;56.34;101420.25;5014750;28;20423;-57
2021/07/01 00:04:43;;;;;;;4.63;2.95;;;;;;;21.44;56.35;101416.78;5014493;28;20038;-58
2021/07/01 00:07:09;;;;;;;5.13;2.58;;;;;;;21.43;56.18;101409.78;5015145;28;20473;-58
2021/07/01 00:09:34;;;;;;;5.00;2.70;;;;;;;21.42;56.36;101411.59;5015199;28;20114;-58
2021/07/01 00:12:00;;;;;;;4.82;2.63;;;;;;;21.43;56.35;101412.44;5014096;28;20287;-58
2021/07/01 00:14:25;;;;;;;4.95;2.55;;;;;;;21.42;56.35;101416.91;5013197;28;20030;-57
2021/07/01 00:16:53;;;;;;;4.95;2.60;;;;;;;21.42;56.38;101416.09;5014673;28;20381;-59
2021/07/01 00:19:19;;;;;;;7.30;2.85;;;;;;;21.41;56.26;101417.88;5014001;28;20048;-58
2021/07/01 00:21:45;;;;;;;6.18;2.75;;;;;;;21.40;56.20;101413.56;5014926;28;20033;-57
2021/07/01 00:24:13;;;;;;;5.55;2.88;;;;;;;21.41;56.43;101423.19;5014711;28;20033;-58
2021/07/01 00:26:38;;;;;;;4.78;2.65;;;;;;;21.40;56.38;101426.81;5017687;28;20037;-58
2021/07/01 00:29:04;;;;;;;5.40;2.92;;;;;;;21.40;56.39;101418.03;5016510;28;20081;-58
2021/07/01 00:31:30;;;;;;;5.43;3.03;;;;;;;21.40;56.35;101418.03;5016621;28;20153;-59
2021/07/01 00:33:57;;;;;;;4.45;2.47;;;;;;;21.40;56.38;101418.03;5019564;28;20033;-58
2021/07/01 00:36:22;;;;;;;4.45;2.50;;;;;;;21.37;56.39;101414.66;5019359;28;20033;-58
2021/07/01 00:38:50;;;;;;;5.07;2.70;;;;;;;21.32;56.48;101408.09;5019534;28;20018;-58
2021/07/01 00:41:15;;;;;;;4.03;2.47;;;;;;;21.38;56.46;101424.31;5015640;28;20378;-58
2021/07/01 00:43:40;;;;;;;4.50;2.70;;;;;;;21.36;56.21;101423.59;5014652;28;20125;-59
2021/07/01 00:46:08;;;;;;;4.77;2.67;;;;;;;21.36;56.16;101423.59;5013479;28;20176;-59
2021/07/01 00:48:34;;;;;;;4.20;2.53;;;;;;;21.37;56.49;101424.44;5014519;28;20393;-58
2021/07/01 00:50:59;;;;;;;4.93;2.88;;;;;;;21.36;56.41;101420.09;5014338;28;20100;-58
2021/07/01 00:53:26;;;;;;;5.30;2.80;;;;;;;21.35;56.42;101421.09;5013666;28;20022;-58
2021/07/01 00:55:52;;;;;;;5.32;2.72;;;;;;;21.34;56.32;101422.03;5014703;28;20026;-56
2021/07/01 00:58:18;;;;;;;5.85;3.10;;;;;;;21.34;56.35;101420.22;5014291;28;20032;-58
2021/07/01 01:01:02;;;;;;;5.97;2.78;;;;;;;21.34;56.36;101416.75;5013505;28;20036;-58
2021/07/01 01:03:32;;;;;;;6.40;3.00;;;;;;;21.34;56.38;101416.75;5014765;28;20034;-58
2021/07/01 01:05:58;;;;;;;6.53;2.90;;;;;;;21.33;56.21;101421.22;5013199;28;20045;-58
2021/07/01 01:08:23;;;;;;;4.95;3.05;;;;;;;21.33;56.33;101417.69;5013219;28;20109;-58
2021/07/01 01:10:49;;;;;;;6.35;3.10;;;;;;;21.32;56.50;101413.38;5013239;28;20017;-58
2021/07/01 01:13:28;;;;;;;5.53;3.00;;;;;;;21.33;56.28;101417.69;5013600;28;20037;-59
2021/07/01 01:15:55;;;;;;;4.63;2.75;;;;;;;21.32;56.33;101416.03;5014130;28;20105;-58
2021/07/01 01:18:21;;;;;;;5.57;2.90;;;;;;;21.32;56.30;101416.03;5013807;28;20050;-59
2021/07/01 01:20:49;;;;;;;5.40;2.72;;;;;;;21.30;56.38;101410.00;5013242;28;20029;-58
2021/07/01 01:23:14;;;;;;;5.32;3.10;;;;;;;21.29;56.19;101408.34;5013662;28;20097;-58
2021/07/01 01:25:42;;;;;;;4.22;2.70;;;;;;;21.30;56.11;101412.66;5013678;28;20069;-59
2021/07/01 01:28:08;;;;;;;5.93;2.67;;;;;;;21.30;56.24;101402.91;5012818;28;20041;-58
2021/07/01 01:30:36;;;;;;;5.78;2.92;;;;;;;21.28;56.25;101404.84;5013646;28;20046;-58
2021/07/01 01:33:04;;;;;;;6.60;2.97;;;;;;;21.29;56.21;101414.47;5013404;28;20057;-57
2021/07/01 01:35:31;;;;;;;6.07;3.10;;;;;;;21.30;56.20;101415.31;5012689;28;20577;-58
2021/07/01 01:37:56;;;;;;;5.35;2.70;;;;;;;21.28;56.12;101410.13;5013350;28;20109;-58
2021/07/01 01:40:21;;;;;;;5.30;3.00;;;;;;;21.28;55.93;101409.31;5013150;28;20385;-57
2021/07/01 01:42:47;;;;;;;5.20;2.72;;;;;;;21.28;56.16;101412.78;5012758;28;20277;-58
2021/07/01 01:45:12;;;;;;;5.43;2.80;;;;;;;21.27;56.09;101412.91;5013214;28;20433;-58
2021/07/01 01:47:37;;;;;;;6.53;3.10;;;;;;;21.27;56.09;101421.72;5013484;28;20282;-58
2021/07/01 01:50:03;;;;;;;5.63;2.63;;;;;;;21.27;56.19;101411.13;5012257;28;20381;-59
2021/07/01 01:52:28;;;;;;;6.22;3.67;;;;;;;21.27;56.02;101408.47;5012749;28;20034;-59
2021/07/01 01:54:53;;;;;;;5.83;2.93;;;;;;;21.26;56.11;101411.25;5012643;28;20099;-59
2021/07/01 01:57:19;;;;;;;5.93;3.25;;;;;;;21.26;55.97;101414.75;5012048;28;20329;-58
2021/07/01 01:59:44;;;;;;;6.13;2.95;;;;;;;21.25;56.14;101413.06;5012816;28;20434;-57
2021/07/01 02:02:09;;;;;;;5.23;3.30;;;;;;;21.26;56.10;101413.91;5012480;28;20042;-58
2021/07/01 02:04:34;;;;;;;6.53;2.87;;;;;;;21.25;56.11;101410.41;5011871;28;20714;-57
2021/07/01 02:06:59;;;;;;;6.97;3.65;;;;;;;21.25;56.20;101413.06;5012522;28;20639;-58
2021/07/01 02:09:25;;;;;;;5.18;2.90;;;;;;;21.24;56.13;101410.53;5012069;28;20053;-58
2021/07/01 02:11:53;;;;;;;7.00;3.17;;;;;;;21.25;56.14;101406.91;5011885;28;20033;-58
2021/07/01 02:14:18;;;;;;;4.90;2.80;;;;;;;21.24;56.10;101407.88;5012186;28;20059;-59
2021/07/01 02:16:44;;;;;;;6.00;2.92;;;;;;;21.24;56.25;101418.47;5011606;28;20108;-59
2021/07/01 02:19:09;;;;;;;5.00;2.55;;;;;;;21.24;56.15;101419.34;5011722;28;20101;-58
2021/07/01 02:21:34;;;;;;;6.47;3.10;;;;;;;21.23;56.25;101417.66;5011829;28;20465;-58
2021/07/01 02:23:59;;;;;;;5.57;3.03;;;;;;;21.23;55.92;101416.81;5011410;28;20084;-58
2021/07/01 02:26:25;;;;;;;5.57;3.10;;;;;;;21.22;56.08;101418.66;5012448;28;20057;-58
2021/07/01 02:28:50;;;;;;;5.72;2.90;;;;;;;21.22;55.98;101415.13;5012710;28;20263;-58
2021/07/01 02:31:15;;;;;;;6.35;2.85;;;;;;;21.22;56.00;101412.47;5011246;28;20038;-57
2021/07/01 02:33:42;;;;;;;5.32;2.70;;;;;;;21.22;55.98;101412.47;5012670;28;20084;-57
2021/07/01 02:36:07;;;;;;;7.05;3.20;;;;;;;21.19;56.01;101409.13;5012190;28;20121;-59
2021/07/01 02:38:33;;;;;;;5.80;2.92;;;;;;;21.20;55.85;101407.31;5011605;28;20116;-58
2021/07/01 02:41:01;;;;;;;6.40;3.20;;;;;;;21.20;55.98;101408.16;5012642;28;20401;-59
2021/07/01 02:43:27;;;;;;;5.80;2.97;;;;;;;21.20;56.02;101407.31;5012464;28;20030;-59
2021/07/01 02:45:52;;;;;;;5.53;2.90;;;;;;;21.19;55.92;101403.00;5011574;28;20373;-59
2021/07/01 02:48:17;;;;;;;6.95;2.88;;;;;;;21.17;56.26;101405.78;5011833;28;20057;-58
2021/07/01 02:50:43;;;;;;;6.20;2.72;;;;;;;21.18;56.00;101406.63;5012332;28;20112;-57
2021/07/01 02:53:09;;;;;;;6.32;3.13;;;;;;;21.19;55.84;101413.59;5011004;28;20030;-58
2021/07/01 02:55:35;;;;;;;5.55;2.90;;;;;;;21.18;55.87;101407.44;5012110;28;20076;-57
2021/07/01 02:58:00;;;;;;;5.80;2.80;;;;;;;21.17;55.78;101411.09;5012336;28;20038;-58
2021/07/01 03:00:28;;;;;;;5.40;3.10;;;;;;;21.17;55.80;101413.72;5011107;28;20022;-58
2021/07/01 03:02:54;;;;;;;7.20;3.13;;;;;;;21.16;55.75;101408.56;5012112;28;20099;-58
2021/07/01 03:05:19;;;;;;;5.28;2.90;;;;;;;21.16;55.97;101409.41;5011853;28;20220;-59
2021/07/01 03:07:44;;;;;;;7.07;3.40;;;;;;;21.17;55.89;101407.56;5011264;28;20018;-59
2021/07/01 03:10:10;;;;;;;7.82;3.00;;;;;;;21.17;55.94;101410.22;5011991;28;20460;-59
2021/07/01 03:12:35;;;;;;;6.35;2.97;;;;;;;21.16;55.84;101409.41;5012128;28;20069;-59
2021/07/01 03:15:07;;;;;;;5.22;2.60;;;;;;;21.14;55.78;101406.03;5011423;28;20026;-58
2021/07/01 03:17:32;;;;;;;7.45;3.10;;;;;;;21.15;55.81;101407.69;5012084;28;20026;-58
2021/07/01 03:19:57;;;;;;;7.80;3.38;;;;;;;21.15;55.85;101417.47;5012013;28;20029;-58
2021/07/01 03:22:23;;;;;;;5.70;2.90;;;;;;;21.15;55.71;101420.13;5010983;28;20466;-58
2021/07/01 03:24:48;;;;;;;5.97;3.05;;;;;;;21.15;55.74;101417.47;5011918;28;20109;-58
2021/07/01 03:27:13;;;;;;;7.63;3.75;;;;;;;21.15;55.74;101414.81;5011133;28;20022;-58
2021/07/01 03:29:39;;;;;;;6.47;3.10;;;;;;;21.13;55.90;101416.78;5011860;28;20481;-57
2021/07/01 03:32:04;;;;;;;7.03;3.05;;;;;;;21.13;55.69;101419.44;5011578;28;20366;-58
2021/07/01 03:34:33;;;;;;;6.05;3.22;;;;;;;21.14;55.77;101424.59;5012678;28;20449;-58
2021/07/01 03:37:01;;;;;;;4.75;2.60;;;;;;;21.14;55.76;101418.44;5015567;28;20022;-58
2021/07/01 03:39:27;;;;;;;5.82;2.50;;;;;;;21.13;55.72;101424.72;5015492;28;20057;-58
2021/07/01 03:41:52;;;;;;;6.38;2.80;;;;;;;21.12;55.79;101428.34;5015046;28;20092;-60
2021/07/01 03:44:18;;;;;;;6.93;3.03;;;;;;;21.12;55.66;101426.50;5015592;28;20080;-58
2021/07/01 03:46:43;;;;;;;6.70;3.35;;;;;;;21.11;55.50;101421.34;5015781;28;20030;-57
2021/07/01 03:49:08;;;;;;;6.38;2.95;;;;;;;21.10;55.65;101419.69;5014434;28;20076;-58
2021/07/01 03:51:34;;;;;;;6.22;2.60;;;;;;;21.11;55.49;101424.84;5015235;28;20088;-59
2021/07/01 03:53:59;;;;;;;6.13;3.03;;;;;;;21.10;55.78;101419.69;5015695;28;20121;-58
2021/07/01 03:56:24;;;;;;;6.60;3.10;;;;;;;21.09;55.58;101415.34;5014400;28;20038;-59
2021/07/01 03:58:50;;;;;;;5.97;2.95;;;;;;;21.10;55.52;101419.69;5015351;28;20719;-58
2021/07/01 04:01:15;;;;;;;6.78;2.97;;;;;;;21.09;55.73;101421.47;5015040;28;20026;-59
2021/07/01 04:03:40;;;;;;;5.20;2.90;;;;;;;21.10;55.70;101417.88;5014541;28;20025;-59
2021/07/01 04:06:06;;;;;;;6.60;2.97;;;;;;;21.09;55.89;101429.41;5014927;28;20483;-59
2021/07/01 04:08:31;;;;;;;5.13;2.78;;;;;;;21.09;55.77;101426.78;5015447;28;20381;-57
2021/07/01 04:10:56;;;;;;;6.70;2.85;;;;;;;21.09;55.74;101428.59;5014275;28;20517;-58
2021/07/01 04:13:22;;;;;;;6.57;3.00;;;;;;;21.09;55.63;101420.63;5014874;28;20469;-57
2021/07/01 04:15:47;;;;;;;6.50;2.97;;;;;;;21.06;55.61;101426.19;5015128;28;20029;-59
2021/07/01 04:18:17;;;;;;;7.30;3.15;;;;;;;21.06;55.60;101423.56;5013873;28;20032;-58
2021/07/01 04:20:45;;;;;;;6.70;3.17;;;;;;;21.06;55.43;101420.91;5014801;28;20089;-58
2021/07/01 04:23:10;;;;;;;5.80;2.78;;;;;;;21.07;55.54;101428.72;5014727;28;20037;-59
2021/07/01 04:25:36;;;;;;;6.38;3.20;;;;;;;21.07;55.52;101425.25;5014091;28;20034;-60
2021/07/01 04:28:02;;;;;;;7.07;3.38;;;;;;;21.07;55.55;101425.25;5014600;28;20053;-58
2021/07/01 04:30:28;;;;;;;6.13;2.90;;;;;;;21.06;55.60;101423.56;5013671;28;20168;-58
2021/07/01 04:32:54;;;;;;;7.15;3.10;;;;;;;21.06;55.57;101428.84;5014546;28;20030;-58
2021/07/01 04:35:20;;;;;;;7.30;3.10;;;;;;;21.05;55.37;101422.72;5014321;28;20084;-58
2021/07/01 04:37:45;;;;;;;7.18;3.28;;;;;;;21.05;55.37;101429.84;5014077;28;20465;-58
2021/07/01 04:40:14;;;;;;;5.97;2.87;;;;;;;21.06;55.64;101428.84;5014530;28;20444;-58
2021/07/01 04:42:39;;;;;;;6.88;3.08;;;;;;;21.05;55.42;101430.66;5014704;28;20342;-57
2021/07/01 04:45:06;;;;;;;5.85;2.80;;;;;;;21.05;55.57;101425.38;5013567;28;20105;-57
2021/07/01 04:47:34;;;;;;;6.82;2.90;;;;;;;21.05;55.40;101430.66;5014608;28;20026;-60
2021/07/01 04:50:02;;;;;;;4.72;2.70;;;;;;;21.04;55.29;101428.16;5014546;28;20033;-59
2021/07/01 04:52:27;;;;;;;5.45;2.67;;;;;;;21.04;55.59;101436.09;5013795;28;20037;-59
2021/07/01 04:54:53;;;;;;;8.27;2.92;;;;;;;21.04;55.52;101433.44;5014557;28;20080;-58
2021/07/01 04:57:18;;;;;;;9.13;3.17;;;;;;;21.02;55.63;101431.75;5015091;28;20022;-58
2021/07/01 04:59:46;;;;;;;6.87;3.07;;;;;;;21.03;55.49;101440.56;5014329;28;20119;-58
2021/07/01 05:02:12;;;;;;;5.43;2.45;;;;;;;21.04;55.40;101436.09;5015014;28;20328;-59
2021/07/01 05:04:40;;;;;;;4.97;2.60;;;;;;;21.02;55.41;101437.06;5014933;28;20037;-59
2021/07/01 05:07:05;;;;;;;6.43;2.85;;;;;;;21.02;55.54;101431.75;5014027;28;20028;-59
2021/07/01 05:09:31;;;;;;;5.83;2.90;;;;;;;21.02;55.34;101430.94;5013914;28;20030;-58
2021/07/01 05:11:56;;;;;;;5.47;2.60;;;;;;;21.02;55.39;101441.53;5014176;28;20290;-58
2021/07/01 05:14:21;;;;;;;6.70;2.93;;;;;;;21.02;55.50;101441.53;5013093;28;20054;-59
2021/07/01 05:16:47;;;;;;;5.63;2.65;;;;;;;21.01;55.53;101432.75;5014020;28;20321;-58
2021/07/01 05:19:17;;;;;;;6.38;2.75;;;;;;;21.00;55.40;101444.31;5014270;28;20018;-58
2021/07/01 05:21:42;;;;;;;4.93;2.67;;;;;;;20.97;55.55;101438.44;5013361;28;20381;-59
2021/07/01 05:24:07;;;;;;;6.28;2.60;;;;;;;20.98;55.72;101443.59;5014114;28;20458;-58
2021/07/01 05:26:35;;;;;;;6.57;2.70;;;;;;;20.97;55.79;101441.91;5013515;28;20104;-59
2021/07/01 05:29:01;;;;;;;6.38;3.05;;;;;;;20.97;55.59;101443.72;5013376;28;20281;-59
2021/07/01 05:31:32;;;;;;;5.70;2.70;;;;;;;20.95;55.50;101446.50;5012821;28;20042;-59
2021/07/01 05:33:59;;;;;;;5.38;2.60;;;;;;;20.95;55.56;101441.22;5013193;28;20792;-57
2021/07/01 05:36:24;;;;;;;4.35;2.42;;;;;;;20.94;55.58;101444.81;5013717;28;20079;-58
2021/07/01 05:38:50;;;;;;;5.35;2.42;;;;;;;20.93;55.63;101439.66;5013792;28;20021;-58
2021/07/01 05:41:15;;;;;;;5.75;3.08;;;;;;;20.93;55.62;101439.66;5012875;28;20478;-58
2021/07/01 05:43:40;;;;;;;8.90;2.73;;;;;;;20.92;55.70;101440.59;5013742;28;20447;-58
2021/07/01 05:46:08;;;;;;;6.40;2.80;;;;;;;20.93;55.70;101439.66;5013615;28;20374;-58
2021/07/01 05:48:34;;;;;;;5.82;2.65;;;;;;;20.90;55.68;101434.59;5012172;28;20030;-58
2021/07/01 05:51:07;;;;;;;5.93;2.80;;;;;;;20.90;55.76;101432.78;5013632;28;20072;-58
2021/07/01 05:53:42;;;;;;;5.70;2.95;;;;;;;20.92;55.66;101436.16;5013045;28;20478;-59
2021/07/01 05:56:08;;;;;;;5.05;2.75;;;;;;;20.89;55.72;101425.81;5012778;28;20346;-59
2021/07/01 05:58:33;;;;;;;7.57;2.80;;;;;;;20.93;55.80;101439.66;5012599;28;20022;-58
2021/07/01 06:00:58;;;;;;;6.00;2.42;;;;;;;20.89;55.59;101428.47;5013520;28;20034;-58
2021/07/01 06:03:23;;;;;;;6.95;3.00;;;;;;;20.91;55.98;101439.78;5012533;28;20052;-59
2021/07/01 06:05:56;;;;;;;7.97;3.22;;;;;;;20.91;55.99;101436.28;5013457;28;20446;-60
2021/07/01 06:08:23;;;;;;;5.53;2.63;;;;;;;20.92;56.22;101444.13;5012994;28;20559;-58
2021/07/01 06:10:50;;;;;;;7.10;3.05;;;;;;;20.93;56.28;101445.78;5012533;28;20026;-57
2021/07/01 06:13:23;;;;;;;5.45;3.03;;;;;;;20.95;56.34;101443.84;5012782;28;20184;-58
2021/07/01 06:15:51;;;;;;;5.43;2.38;;;;;;;20.99;56.24;101447.09;5013297;28;20024;-58
2021/07/01 06:18:22;;;;;;;5.07;2.40;;;;;;;21.00;56.29;101443.47;5012884;28;20106;-59
2021/07/01 06:20:50;;;;;;;5.35;2.42;;;;;;;21.01;56.34;101443.34;5012916;28;20026;-60
2021/07/01 06:23:16;;;;;;;6.85;2.72;;;;;;;21.03;56.54;101451.16;5012139;28;20030;-57
2021/07/01 06:25:41;;;;;;;5.90;2.97;;;;;;;21.02;56.57;101450.31;5012837;28;20354;-59
2021/07/01 06:28:07;;;;;;;5.97;2.58;;;;;;;21.04;56.45;101447.53;5012892;28;20109;-58
2021/07/01 06:30:36;;;;;;;6.88;2.83;;;;;;;21.05;56.34;101448.38;5011799;28;20056;-59
2021/07/01 06:33:05;;;;;;;5.18;2.67;;;;;;;21.04;56.61;101447.53;5012916;28;20063;-57
2021/07/01 06:35:30;;;;;;;5.60;2.40;;;;;;;21.05;56.71;101446.56;5012681;28;20035;-58
2021/07/01 06:37:59;;;;;;;7.97;2.72;;;;;;;21.08;56.59;101445.44;5012178;28;20052;-58
2021/07/01 06:40:25;;;;;;;7.35;2.70;;;;;;;21.05;56.58;101446.56;5012364;28;20030;-57
2021/07/01 06:42:56;;;;;;;10.18;2.30;;;;;;;21.05;56.87;101448.38;5012911;28;20108;-58
2021/07/01 06:45:22;;;;;;;8.20;2.63;;;;;;;21.04;56.56;101450.19;5011741;28;20026;-59
2021/07/01 06:47:53;;;;;;;4.45;2.33;;;;;;;21.05;56.80;101443.09;5012648;28;20116;-58
2021/07/01 06:50:27;;;;;;;5.88;2.40;;;;;;;21.05;56.79;101451.03;5012418;28;20030;-58
2021/07/01 06:52:57;;;;;;;6.20;2.90;;;;;;;21.06;56.51;101445.63;5011760;28;20034;-58
2021/07/01 06:55:24;;;;;;;6.13;2.35;;;;;;;21.06;56.76;101445.63;5012865;28;20394;-59
2021/07/01 06:57:50;;;;;;;6.28;2.47;;;;;;;21.07;56.57;101463.16;5012747;28;20026;-58
2021/07/01 07:00:17;;;;;;;6.88;2.22;;;;;;;21.07;56.80;101457.88;5011533;28;20378;-58
2021/07/01 07:02:43;;;;;;;6.30;2.53;;;;;;;21.08;56.58;101456.91;5012493;28;20030;-58
2021/07/01 07:05:16;;;;;;;7.95;2.80;;;;;;;21.09;56.69;101458.56;5011731;28;20036;-59
2021/07/01 07:07:47;;;;;;;6.20;2.42;;;;;;;21.09;56.79;101461.22;5012891;28;20022;-58
2021/07/01 07:10:22;;;;;;;4.90;2.33;;;;;;;21.08;56.85;101446.31;5012014;28;20038;-58
2021/07/01 07:12:51;;;;;;;7.65;2.38;;;;;;;21.11;56.79;101464.59;5012014;28;20053;-57
2021/07/01 07:15:29;;;;;;;8.27;2.97;;;;;;;21.08;56.97;101459.56;5012062;28;20025;-58
2021/07/01 07:18:00;;;;;;;7.85;2.40;;;;;;;21.11;57.07;101458.44;5012547;28;20469;-58
2021/07/01 07:20:29;;;;;;;7.47;2.70;;;;;;;21.12;56.96;101460.97;5011546;28;20026;-59
2021/07/01 07:22:56;;;;;;;6.05;2.45;;;;;;;21.13;57.09;101453.88;5012491;28;20112;-58
2021/07/01 07:25:22;;;;;;;10.35;2.92;;;;;;;21.15;57.05;101465.19;5011996;28;20026;-58
2021/07/01 07:28:00;;;;;;;7.32;2.55;;;;;;;21.14;57.23;101464.34;5011543;28;20046;-57
2021/07/01 07:30:27;;;;;;;5.28;2.08;;;;;;;21.16;57.06;101470.34;5011820;28;20137;-57
2021/07/01 07:32:58;;;;;;;6.57;2.22;;;;;;;21.17;57.18;101471.19;5012504;28;20030;-57
2021/07/01 07:35:23;;;;;;;6.13;2.60;;;;;;;21.17;57.24;101472.03;5011439;28;20022;-58
2021/07/01 07:37:49;;;;;;;6.97;2.70;;;;;;;21.19;57.11;101471.91;5012517;28;20030;-57
2021/07/01 07:40:15;;;;;;;7.68;2.55;;;;;;;21.12;57.20;101460.13;5011910;28;20374;-57
2021/07/01 07:42:45;;;;;;;5.70;2.42;;;;;;;21.18;57.24;101468.41;5011982;28;20034;-57
2021/07/01 07:45:12;;;;;;;5.43;2.00;;;;;;;21.13;57.35;101464.47;5012393;28;20123;-58
2021/07/01 07:47:37;;;;;;;9.43;2.50;;;;;;;21.18;57.19;101467.56;5011106;28;20501;-58
2021/07/01 07:50:04;;;;;;;5.75;2.22;;;;;;;21.18;57.45;101467.56;5012153;28;20080;-59
2021/07/01 07:52:31;;;;;;;5.40;2.20;;;;;;;21.18;57.35;101462.28;5011556;28;20037;-58
2021/07/01 07:54:58;;;;;;;8.00;2.40;;;;;;;21.18;57.51;101468.41;5011162;28;20022;-57
2021/07/01 07:57:28;;;;;;;9.90;2.42;;;;;;;21.19;57.27;101469.25;5011498;28;20474;-57
2021/07/01 07:59:56;;;;;;;6.63;2.40;;;;;;;21.19;57.43;101478.03;5012079;28;20080;-57
2021/07/01 08:02:47;;;;;;;7.35;2.65;;;;;;;21.19;57.13;101477.22;5010824;28;20026;-58
2021/07/01 08:05:18;;;;;;;7.68;2.70;;;;;;;21.18;57.45;101479.00;5011828;28;20026;-58
2021/07/01 08:07:44;;;;;;;9.73;2.28;;;;;;;21.20;57.56;101477.09;5011853;28;20026;-57
2021/07/01 08:10:14;;;;;;;9.27;2.58;;;;;;;21.20;57.55;101469.13;5011311;28;20026;-57
2021/07/01 08:12:41;;;;;;;9.95;2.33;;;;;;;21.20;57.54;101471.78;5011902;28;20053;-58
2021/07/01 08:15:12;;;;;;;6.55;2.50;;;;;;;21.19;57.20;101475.41;5011778;28;20038;-57
2021/07/01 08:17:43;;;;;;;8.63;2.45;;;;;;;21.18;57.22;101479.00;5010879;28;20029;-58
2021/07/01 08:20:17;;;;;;;5.38;2.15;;;;;;;21.16;57.26;101473.00;5012521;28;20022;-56
2021/07/01 08:22:44;;;;;;;6.85;2.38;;;;;;;21.14;57.07;101472.31;5014598;28;20025;-57
2021/07/01 08:25:11;;;;;;;6.13;2.65;;;;;;;21.13;57.16;101473.25;5015754;28;20327;-60
2021/07/01 08:27:37;;;;;;;8.20;2.55;;;;;;;21.14;57.08;101484.69;5016195;28;20026;-61
2021/07/01 08:30:05;;;;;;;7.05;2.20;;;;;;;21.14;57.12;101482.91;5014177;28;20143;-58
2021/07/01 08:32:32;;;;;;;6.90;2.40;;;;;;;21.12;57.12;101482.16;5017208;28;20088;-58
2021/07/01 08:35:37;;;;;;;8.57;2.50;;;;;;;21.10;57.07;101478.00;5016263;28;20053;-59
2021/07/01 08:38:04;;;;;;;8.77;2.47;;;;;;;21.11;56.78;101484.94;5015047;28;20049;-60
2021/07/01 08:40:34;;;;;;;5.78;1.90;;;;;;;21.06;57.06;101465.94;5014951;28;20038;-60
2021/07/01 08:43:02;;;;;;;10.23;2.05;;;;;;;21.07;57.16;101472.94;5015114;28;20072;-58
2021/07/01 08:45:42;;;;;;;7.70;2.20;;;;;;;21.09;57.07;101484.25;5014117;28;20025;-59
2021/07/01 08:48:19;;;;;;;6.45;2.00;;;;;;;21.08;57.08;101483.41;5014816;28;20112;-60
2021/07/01 08:50:52;;;;;;;5.63;2.30;;;;;;;21.11;57.23;101491.09;5014231;28;20101;-60
2021/07/01 08:53:35;;;;;;;5.53;2.00;;;;;;;21.11;57.07;101495.53;5014585;28;20435;-58
2021/07/01 08:56:03;;;;;;;7.28;2.03;;;;;;;21.11;57.04;101493.75;5014618;28;20030;-59
2021/07/01 08:58:34;;;;;;;4.18;1.77;;;;;;;21.05;56.87;101482.84;5013708;28;20034;-59
2021/07/01 09:01:00;;;;;;;7.20;2.38;;;;;;;21.02;56.93;101478.63;5014710;28;20025;-59
2021/07/01 09:03:28;;;;;;;8.57;2.10;;;;;;;21.12;57.02;101498.06;5014260;28;20117;-59
2021/07/01 09:05:55;;;;;;;4.53;1.90;;;;;;;21.11;56.86;101499.06;5013828;28;20026;-58
2021/07/01 09:08:30;;;;;;;5.70;1.65;;;;;;;21.12;57.15;101499.88;5014970;28;20026;-60
2021/07/01 09:11:04;;;;;;;4.30;1.80;;;;;;;21.12;56.76;101492.78;5015121;28;20037;-58
2021/07/01 09:13:30;;;;;;;4.32;1.73;;;;;;;21.11;56.90;101495.53;5013580;28;20053;-59
2021/07/01 09:15:57;;;;;;;9.80;2.20;;;;;;;21.12;56.86;101500.72;5014715;28;20029;-59
2021/07/01 09:18:22;;;;;;;5.57;2.00;;;;;;;21.10;56.62;101494.72;5013908;28;20052;-57
2021/07/01 09:20:50;;;;;;;4.15;1.75;;;;;;;21.09;56.67;101498.31;5013304;28;20026;-57
2021/07/01 09:23:17;;;;;;;5.47;2.03;;;;;;;21.09;56.56;101503.63;5013851;28;20047;-58
2021/07/01 09:25:42;;;;;;;5.28;2.10;;;;;;;21.11;56.65;101503.50;5013985;28;20474;-57
2021/07/01 09:28:07;;;;;;;6.68;2.05;;;;;;;21.12;56.86;101508.66;5013588;28;20084;-58
2021/07/01 09:30:33;;;;;;;5.93;1.77;;;;;;;21.13;56.81;101502.41;5013845;28;20077;-58
2021/07/01 09:33:02;;;;;;;6.95;2.00;;;;;;;21.15;56.73;101503.13;5013376;28;20291;-60
2021/07/01 09:35:30;;;;;;;5.35;2.10;;;;;;;21.14;56.60;101503.25;5013787;28;20030;-60
2021/07/01 09:37:59;;;;;;;6.28;1.88;;;;;;;21.13;56.58;101501.59;5013897;28;20038;-59
2021/07/01 09:40:25;;;;;;;6.30;1.85;;;;;;;21.12;56.46;101505.19;5013328;28;20022;-60
2021/07/01 09:42:53;;;;;;;4.43;1.70;;;;;;;21.10;56.45;101502.66;5012469;28;20037;-59
2021/07/01 09:45:21;;;;;;;5.57;2.03;;;;;;;21.12;56.58;101505.19;5013559;28;20466;-59
2021/07/01 09:47:51;;;;;;;7.60;1.67;;;;;;;21.11;56.60;101503.50;5012968;28;20147;-58
2021/07/01 09:50:18;;;;;;;4.97;1.83;;;;;;;21.11;56.73;101511.44;5013507;28;20409;-58
2021/07/01 09:52:47;;;;;;;5.65;2.00;;;;;;;21.15;56.63;101507.59;5013393;28;20022;-58
2021/07/01 09:55:13;;;;;;;3.90;1.75;;;;;;;21.15;56.50;101508.41;5012795;28;20036;-59
2021/07/01 09:57:45;;;;;;;7.50;1.70;;;;;;;21.14;56.89;101512.06;5013153;28;20026;-57
2021/07/01 10:00:12;;;;;;;5.68;2.00;;;;;;;21.18;56.71;101512.63;5013082;28;20045;-58
2021/07/01 10:02:39;;;;;;;5.75;1.80;;;;;;;21.18;56.81;101520.59;5012478;28;20355;-58
2021/07/01 10:05:07;;;;;;;3.85;1.70;;;;;;;21.19;56.76;101517.81;5013407;28;20034;-59
2021/07/01 10:07:32;;;;;;;7.38;2.35;;;;;;;21.20;56.89;101513.34;5012861;28;20441;-58
2021/07/01 10:10:15;;;;;;;4.20;1.90;;;;;;;21.22;56.92;101515.84;5012445;28;20037;-58
2021/07/01 10:13:10;;;;;;;6.60;1.90;;;;;;;21.21;57.02;101528.28;5013049;28;20120;-58
2021/07/01 10:15:37;;;;;;;6.38;2.03;;;;;;;21.21;56.99;101520.31;5007444;28;20086;-57
2021/07/01 10:18:17;;;;;;;6.85;2.00;;;;;;;21.22;56.99;101518.50;5013183;28;20033;-58
2021/07/01 10:20:50;;;;;;;8.73;2.20;;;;;;;21.23;57.04;101521.03;5013147;28;20342;-57
2021/07/01 10:23:25;;;;;;;6.80;2.35;;;;;;;21.24;57.18;101521.84;5012011;28;20045;-58
2021/07/01 10:25:52;;;;;;;9.30;2.28;;;;;;;21.23;57.43;101518.38;5012914;28;20034;-59
2021/07/01 10:28:20;;;;;;;8.35;2.30;;;;;;;21.25;57.47;101524.38;5012506;28;20033;-59
2021/07/01 10:30:59;;;;;;;7.32;2.45;;;;;;;21.25;57.38;101526.22;5012037;28;20042;-58
2021/07/01 10:33:32;;;;;;;8.90;2.42;;;;;;;21.25;57.54;101524.38;5012585;28;20471;-58
2021/07/01 10:36:00;;;;;;;8.57;2.30;;;;;;;21.26;57.62;101526.06;5013060;28;20038;-58
2021/07/01 10:38:42;;;;;;;8.75;2.20;;;;;;;21.26;57.39;101525.25;5011801;28;20378;-57
2021/07/01 10:41:07;;;;;;;8.30;2.75;;;;;;;21.28;57.57;101531.25;5012815;28;20346;-57
2021/07/01 10:43:44;;;;;;;5.15;2.10;;;;;;;21.26;57.65;101526.06;5011474;28;20029;-57
2021/07/01 10:46:11;;;;;;;5.95;2.08;;;;;;;21.26;57.58;101533.19;5012716;28;20429;-57
2021/07/01 10:48:37;;;;;;;8.13;2.47;;;;;;;21.26;57.56;101530.56;4937944;28;20037;-57
2021/07/01 10:51:13;;;;;;;7.45;2.30;;;;;;;21.25;57.50;101532.34;5041583;28;20104;-57
2021/07/01 10:53:40;;;;;;;5.07;2.10;;;;;;;21.20;57.56;101527.44;5031996;28;20120;-58
2021/07/01 10:56:45;;;;;;;7.80;2.40;;;;;;;21.22;57.45;101532.63;5032428;28;20026;-57
2021/07/01 10:59:12;;;;;;;;;;;;;;;21.21;57.42;101541.53;5032218;28;20025;-57
2021/07/01 11:01:44;;;;;;;5.95;1.90;;;;;;;21.20;57.48;101542.50;5032136;28;19991;-58
2021/07/01 11:04:17;;;;;;;4.97;2.00;;;;;;;21.18;57.43;101537.31;5032152;28;20396;-57
2021/07/01 11:06:45;;;;;;;8.52;2.15;;;;;;;21.18;57.38;101541.78;5032078;28;20040;-57
2021/07/01 11:09:13;;;;;;;8.85;2.40;;;;;;;21.17;57.33;101542.75;5032097;28;20029;-57
2021/07/01 11:11:40;;;;;;;7.20;2.33;;;;;;;21.16;57.53;101536.63;5030858;28;20382;-57
2021/07/01 11:14:14;;;;;;;11.20;2.55;;;;;;;21.18;57.36;101544.44;5032203;28;20028;-57
2021/07/01 11:16:44;;;;;;;9.02;2.83;;;;;;;21.17;57.46;101542.75;5031992;28;20108;-58
2021/07/01 11:19:21;;;;;;;6.10;2.00;;;;;;;21.17;57.39;101542.75;5031264;28;20433;-57
2021/07/01 11:21:52;;;;;;;7.88;2.35;;;;;;;21.17;57.37;101545.41;5032168;28;20026;-58
2021/07/01 11:24:20;;;;;;;8.65;2.28;;;;;;;21.12;57.44;101535.19;5031776;28;20424;-57
2021/07/01 11:27:03;;;;;;;5.82;2.03;;;;;;;21.15;57.39;101539.38;5031401;28;20021;-58
2021/07/01 11:29:47;;;;;;;6.80;2.42;;;;;;;21.13;57.48;101533.38;5031552;28;20018;-58